createdAt,value
2019-03-26T00:01:44.577Z,2.30
2019-03-26T00:04:13.102Z,2.30
2019-03-26T00:06:41.108Z,2.30
2019-03-26T00:09:11.295Z,2.30
2019-03-26T00:11:39.183Z,2.30
2019-03-26T00:14:07.021Z,2.40
2019-03-26T00:16:35.546Z,2.40
2019-03-26T00:19:03.548Z,2.40
2019-03-26T00:21:32.478Z,2.40
2019-03-26T00:24:00.486Z,2.40
2019-03-26T00:26:30.060Z,2.50
2019-03-26T00:28:59.666Z,2.50
2019-03-26T00:31:27.596Z,2.50
2019-03-26T00:33:55.636Z,2.50
2019-03-26T00:36:26.786Z,2.50
2019-03-26T00:38:54.340Z,2.50
2019-03-26T00:41:23.905Z,2.50
2019-03-26T00:43:51.942Z,2.40
2019-03-26T00:46:19.833Z,2.40
2019-03-26T00:48:47.911Z,2.40
2019-03-26T00:51:15.772Z,2.40
2019-03-26T00:53:45.378Z,2.40
2019-03-26T00:56:13.297Z,2.40
2019-03-26T00:58:42.759Z,2.30
2019-03-26T01:01:10.762Z,2.40
2019-03-26T01:03:38.820Z,2.30
2019-03-26T01:06:06.875Z,2.40
2019-03-26T01:08:34.923Z,2.40
2019-03-26T01:11:02.961Z,2.30
2019-03-26T01:13:31.945Z,2.40
2019-03-26T01:15:59.806Z,2.30
2019-03-26T01:18:28.814Z,2.40
2019-03-26T01:20:56.857Z,2.40
2019-03-26T01:23:24.811Z,2.40
2019-03-26T01:25:52.780Z,2.40
2019-03-26T01:28:20.721Z,2.40
2019-03-26T01:30:48.588Z,2.50
2019-03-26T01:33:19.526Z,2.50
2019-03-26T01:35:47.446Z,2.50
2019-03-26T01:38:15.261Z,2.50
2019-03-26T01:40:43.087Z,2.50
2019-03-26T01:43:11.973Z,2.50
2019-03-26T01:45:40.021Z,2.50
2019-03-26T01:48:07.891Z,2.50
2019-03-26T01:50:36.816Z,2.50
2019-03-26T01:53:05.811Z,2.50
2019-03-26T01:55:33.675Z,2.60
2019-03-26T01:58:01.613Z,2.60
2019-03-26T02:00:29.861Z,2.60
2019-03-26T02:03:00.304Z,2.70
2019-03-26T02:05:28.223Z,2.70
2019-03-26T02:07:56.018Z,2.70
2019-03-26T02:10:23.881Z,2.70
2019-03-26T02:12:55.435Z,2.70
2019-03-26T02:15:27.252Z,2.70
2019-03-26T02:17:55.191Z,2.70
2019-03-26T02:20:24.251Z,2.60
2019-03-26T02:22:52.076Z,2.60
2019-03-26T02:25:19.932Z,2.50
2019-03-26T02:27:48.515Z,2.50
2019-03-26T02:30:17.523Z,2.60
2019-03-26T02:32:45.365Z,2.60
2019-03-26T02:35:18.256Z,2.60
2019-03-26T02:37:42.761Z,2.60
2019-03-26T02:40:10.682Z,2.60
2019-03-26T02:42:38.515Z,2.70
2019-03-26T02:45:06.446Z,2.70
2019-03-26T02:47:34.527Z,2.70
2019-03-26T02:50:02.572Z,2.70
2019-03-26T02:52:31.991Z,2.80
2019-03-26T02:55:00.964Z,2.80
2019-03-26T02:57:28.983Z,2.70
2019-03-26T02:59:56.789Z,2.70
2019-03-26T03:02:25.189Z,2.70
2019-03-26T03:04:53.137Z,2.70
2019-03-26T03:07:21.164Z,2.80
2019-03-26T03:09:49.031Z,2.70
2019-03-26T03:12:16.945Z,2.70
2019-03-26T03:14:47.412Z,2.70
2019-03-26T03:17:15.298Z,2.70
2019-03-26T03:19:43.129Z,2.70
2019-03-26T03:22:11.164Z,2.70
2019-03-26T03:24:38.996Z,2.70
2019-03-26T03:27:07.023Z,2.70
2019-03-26T03:29:34.999Z,2.70
2019-03-26T03:32:04.216Z,2.80
2019-03-26T03:34:34.902Z,2.80
2019-03-26T03:37:04.742Z,2.80
2019-03-26T03:39:35.249Z,2.80
2019-03-26T03:42:05.360Z,2.90
2019-03-26T03:44:33.325Z,2.90
2019-03-26T03:47:01.290Z,2.90
2019-03-26T03:49:29.789Z,2.90
2019-03-26T03:51:57.714Z,2.90
2019-03-26T03:54:25.711Z,2.80
2019-03-26T03:56:53.660Z,2.90
2019-03-26T03:59:21.522Z,2.90
2019-03-26T04:01:49.365Z,2.90
2019-03-26T04:04:17.308Z,2.90
2019-03-26T04:06:45.192Z,2.90
2019-03-26T04:09:12.987Z,2.90
2019-03-26T04:11:42.467Z,3.00
2019-03-26T04:14:10.457Z,2.90
2019-03-26T04:16:42.549Z,3.00
2019-03-26T04:19:10.388Z,3.00
2019-03-26T04:21:39.886Z,3.00
2019-03-26T04:24:07.786Z,3.00
2019-03-26T04:26:35.741Z,3.00
2019-03-26T04:29:04.950Z,3.10
2019-03-26T04:31:32.945Z,3.10
2019-03-26T04:34:03.719Z,3.10
2019-03-26T04:36:32.727Z,3.10
2019-03-26T04:39:04.007Z,3.00
2019-03-26T04:41:33.776Z,3.00
2019-03-26T04:44:01.704Z,2.90
2019-03-26T04:46:29.534Z,2.80
2019-03-26T04:48:57.632Z,2.80
2019-03-26T04:51:27.299Z,2.80
2019-03-26T04:53:55.000Z,2.80
2019-03-26T04:56:22.850Z,2.80
2019-03-26T04:58:51.899Z,2.80
2019-03-26T05:01:19.993Z,2.80
2019-03-26T05:03:48.018Z,2.80
2019-03-26T05:06:17.529Z,2.80
2019-03-26T05:08:46.632Z,2.90
2019-03-26T05:11:14.481Z,2.90
2019-03-26T05:13:42.337Z,3.00
2019-03-26T05:16:10.262Z,3.00
2019-03-26T05:18:38.199Z,3.10
2019-03-26T05:21:06.063Z,3.20
2019-03-26T05:23:33.955Z,3.20
2019-03-26T05:26:01.824Z,3.30
2019-03-26T05:28:32.841Z,3.40
2019-03-26T05:31:00.765Z,3.40
2019-03-26T05:33:28.633Z,3.40
2019-03-26T05:36:01.081Z,3.50
2019-03-26T05:38:35.101Z,3.60
2019-03-26T05:41:05.459Z,3.70
2019-03-26T05:43:33.452Z,3.80
2019-03-26T05:46:03.537Z,3.80
2019-03-26T05:48:31.664Z,3.80
2019-03-26T05:50:59.617Z,3.80
2019-03-26T05:53:28.941Z,3.90
2019-03-26T05:55:58.327Z,3.90
2019-03-26T05:58:26.396Z,3.90
2019-03-26T06:00:56.181Z,4.00
2019-03-26T06:03:24.185Z,4.00
2019-03-26T06:05:52.062Z,4.10
2019-03-26T06:08:28.849Z,4.10
2019-03-26T06:10:58.476Z,4.20
2019-03-26T06:13:26.367Z,4.30
2019-03-26T06:15:57.090Z,4.30
2019-03-26T06:18:25.101Z,4.40
2019-03-26T06:23:42.712Z,4.60
2019-03-26T06:26:13.754Z,4.70
2019-03-26T06:28:41.601Z,4.70
2019-03-26T06:31:13.343Z,4.80
2019-03-26T06:33:42.965Z,5.00
2019-03-26T06:36:11.293Z,5.10
2019-03-26T06:38:41.186Z,5.10
2019-03-26T06:41:09.136Z,5.20
2019-03-26T06:43:37.228Z,5.20
2019-03-26T06:46:05.184Z,5.30
2019-03-26T06:48:34.066Z,5.30
2019-03-26T06:51:01.987Z,5.40
2019-03-26T06:53:31.277Z,5.50
2019-03-26T06:55:59.422Z,5.50
2019-03-26T06:58:31.229Z,5.50
2019-03-26T07:03:59.301Z,5.70
2019-03-26T07:06:29.189Z,5.80
2019-03-26T07:08:57.092Z,6.00
2019-03-26T07:11:25.131Z,6.10
2019-03-26T07:13:53.099Z,6.30
2019-03-26T07:16:22.553Z,6.40
2019-03-26T07:18:50.536Z,6.50
2019-03-26T07:21:18.716Z,6.50
2019-03-26T07:23:46.762Z,6.60
2019-03-26T07:26:14.714Z,6.60
2019-03-26T07:28:42.811Z,6.60
2019-03-26T07:31:11.052Z,6.70
2019-03-26T07:33:39.332Z,7.00
2019-03-26T07:36:08.153Z,7.20
2019-03-26T07:38:36.141Z,7.30
2019-03-26T07:41:04.222Z,7.30
2019-03-26T07:43:32.374Z,7.30
2019-03-26T07:46:00.672Z,7.20
2019-03-26T07:48:29.392Z,7.10
2019-03-26T07:50:57.614Z,7.10
2019-03-26T07:53:26.742Z,7.10
2019-03-26T07:55:55.020Z,7.20
2019-03-26T07:58:24.700Z,7.40
2019-03-26T08:00:53.020Z,7.50
2019-03-26T08:03:21.346Z,7.50
2019-03-26T08:05:49.346Z,7.50
2019-03-26T08:08:17.451Z,7.50
2019-03-26T08:10:46.144Z,7.60
2019-03-26T08:13:14.243Z,7.50
2019-03-26T08:15:42.438Z,7.40
2019-03-26T08:18:12.280Z,7.30
2019-03-26T08:20:43.380Z,7.10
2019-03-26T08:23:12.971Z,7.00
2019-03-26T08:25:41.254Z,6.90
2019-03-26T08:28:10.974Z,6.80
2019-03-26T08:30:39.251Z,6.70
2019-03-26T08:33:07.889Z,6.60
2019-03-26T08:35:37.434Z,6.50
2019-03-26T08:38:12.719Z,6.50
2019-03-26T08:40:38.019Z,6.40
2019-03-26T08:43:06.607Z,6.40
2019-03-26T08:45:37.956Z,6.40
2019-03-26T08:48:06.174Z,6.40
2019-03-26T08:50:34.410Z,6.30
2019-03-26T08:53:03.794Z,6.20
2019-03-26T08:55:31.981Z,6.00
2019-03-26T08:58:00.203Z,5.80
2019-03-26T09:00:28.340Z,5.80
2019-03-26T09:02:56.381Z,5.70
2019-03-26T09:05:29.375Z,5.80
2019-03-26T09:07:59.272Z,5.80
2019-03-26T09:10:28.960Z,5.80
2019-03-26T09:12:58.525Z,5.80
2019-03-26T09:15:28.492Z,5.70
2019-03-26T09:17:57.470Z,5.60
2019-03-26T09:20:29.296Z,5.50
2019-03-26T09:22:57.602Z,5.50
2019-03-26T09:25:25.714Z,5.50
2019-03-26T09:27:53.929Z,5.40
2019-03-26T09:30:22.311Z,5.50
2019-03-26T09:32:50.512Z,5.50
2019-03-26T09:35:20.879Z,5.60
2019-03-26T09:37:51.486Z,5.70
2019-03-26T09:40:19.562Z,5.80
2019-03-26T09:42:50.096Z,5.90
2019-03-26T09:45:18.109Z,6.00
2019-03-26T09:47:46.331Z,6.10
2019-03-26T09:50:16.195Z,6.20
2019-03-26T09:52:44.419Z,6.40
2019-03-26T09:55:12.730Z,6.50
2019-03-26T09:57:41.274Z,6.60
2019-03-26T10:00:10.186Z,6.70
2019-03-26T10:02:38.504Z,6.70
2019-03-26T10:05:07.866Z,6.60
2019-03-26T10:07:36.203Z,6.60
2019-03-26T10:10:05.583Z,6.60
2019-03-26T10:12:33.761Z,6.60
2019-03-26T10:15:02.002Z,6.60
2019-03-26T10:17:30.201Z,6.50
2019-03-26T10:19:58.432Z,6.50
2019-03-26T10:22:26.528Z,6.60
2019-03-26T10:27:48.157Z,6.70
2019-03-26T10:30:17.659Z,6.70
2019-03-26T10:32:47.365Z,6.70
2019-03-26T10:35:15.846Z,6.80
2019-03-26T10:37:43.763Z,6.80
2019-03-26T10:40:14.030Z,6.90
2019-03-26T10:42:42.467Z,7.00
2019-03-26T10:45:12.179Z,7.00
2019-03-26T10:47:40.417Z,7.30
2019-03-26T10:50:10.428Z,8.00
2019-03-26T10:52:38.623Z,9.00
2019-03-26T10:55:06.849Z,10.40
2019-03-26T10:57:35.268Z,11.40
2019-03-26T11:00:05.037Z,12.00
2019-03-26T11:02:34.216Z,12.50
2019-03-26T11:05:02.525Z,12.80
2019-03-26T11:07:31.144Z,12.60
2019-03-26T11:09:59.389Z,12.10
2019-03-26T11:12:27.475Z,11.70
2019-03-26T11:14:55.439Z,11.30
2019-03-26T11:17:24.704Z,11.20
2019-03-26T11:19:53.697Z,11.10
2019-03-26T11:22:23.557Z,10.90
2019-03-26T11:24:52.731Z,10.70
2019-03-26T11:27:21.936Z,10.30
2019-03-26T11:29:52.301Z,9.80
2019-03-26T11:32:20.414Z,9.40
2019-03-26T11:34:48.724Z,9.00
2019-03-26T11:37:17.149Z,8.60
2019-03-26T11:39:45.233Z,8.40
2019-03-26T11:42:15.884Z,8.20
2019-03-26T11:44:43.940Z,8.10
2019-03-26T11:47:12.250Z,8.00
2019-03-26T11:49:40.791Z,7.90
2019-03-26T11:52:10.639Z,7.80
2019-03-26T11:54:38.787Z,7.80
2019-03-26T11:57:09.811Z,7.80
2019-03-26T11:59:37.913Z,7.80
2019-03-26T12:02:07.487Z,7.80
2019-03-26T12:04:35.872Z,7.90
2019-03-26T12:07:05.679Z,8.00
2019-03-26T12:09:45.580Z,8.10
2019-03-26T12:12:05.792Z,8.40
2019-03-26T12:14:34.819Z,8.70
2019-03-26T12:17:03.209Z,8.80
2019-03-26T12:19:33.001Z,8.70
2019-03-26T12:22:01.248Z,8.70
2019-03-26T12:24:30.377Z,8.60
2019-03-26T12:26:58.538Z,8.50
2019-03-26T12:29:31.358Z,8.40
2019-03-26T12:31:59.950Z,8.30
2019-03-26T12:34:28.152Z,8.20
2019-03-26T12:36:56.307Z,8.10
2019-03-26T12:39:26.456Z,8.00
2019-03-26T12:41:55.638Z,7.90
2019-03-26T12:44:24.690Z,8.00
2019-03-26T12:46:58.132Z,8.10
2019-03-26T12:49:23.050Z,8.20
2019-03-26T12:51:51.280Z,8.40
2019-03-26T12:54:20.002Z,8.50
2019-03-26T12:56:49.727Z,8.70
2019-03-26T12:59:17.989Z,8.90
2019-03-26T13:01:47.095Z,9.00
2019-03-26T13:04:16.871Z,9.10
2019-03-26T13:06:44.732Z,9.30
2019-03-26T13:09:14.269Z,9.30
2019-03-26T13:11:42.558Z,9.50
2019-03-26T13:14:10.867Z,9.60
2019-03-26T13:16:38.855Z,9.60
2019-03-26T13:19:08.266Z,9.50
2019-03-26T13:21:39.172Z,9.50
2019-03-26T13:24:07.455Z,9.50
2019-03-26T13:26:36.546Z,9.60
2019-03-26T13:29:06.672Z,9.70
2019-03-26T13:31:34.982Z,9.80
2019-03-26T13:34:04.624Z,9.80
2019-03-26T13:36:34.402Z,9.80
2019-03-26T13:39:04.098Z,9.90
2019-03-26T13:41:32.474Z,9.80
2019-03-26T13:44:00.945Z,9.80
2019-03-26T13:46:30.643Z,9.60
2019-03-26T13:48:58.760Z,9.40
2019-03-26T13:51:30.595Z,9.20
2019-03-26T13:53:58.632Z,9.00
2019-03-26T13:56:28.303Z,8.90
2019-03-26T13:58:56.428Z,8.80
2019-03-26T14:01:24.578Z,8.70
2019-03-26T14:03:52.743Z,8.60
2019-03-26T14:06:22.396Z,8.60
2019-03-26T14:08:50.509Z,8.60
2019-03-26T14:11:19.461Z,8.60
2019-03-26T14:13:49.016Z,8.70
2019-03-26T14:16:16.966Z,8.80
2019-03-26T14:18:45.117Z,8.90
2019-03-26T14:21:14.718Z,9.00
2019-03-26T14:23:44.143Z,9.20
2019-03-26T14:26:12.585Z,9.30
2019-03-26T14:28:41.719Z,9.30
2019-03-26T14:31:10.015Z,9.20
2019-03-26T14:33:38.343Z,9.20
2019-03-26T14:36:07.937Z,9.20
2019-03-26T14:38:36.231Z,9.20
2019-03-26T14:41:06.020Z,9.20
2019-03-26T14:43:34.018Z,9.10
2019-03-26T14:46:03.274Z,8.90
2019-03-26T14:48:31.769Z,8.90
2019-03-26T14:50:59.915Z,8.80
2019-03-26T14:53:29.422Z,8.70
2019-03-26T14:55:57.427Z,8.60
2019-03-26T14:58:25.556Z,8.50
2019-03-26T15:00:59.457Z,8.50
2019-03-26T15:03:29.410Z,8.50
2019-03-26T15:05:57.622Z,8.50
2019-03-26T15:08:27.236Z,8.50
2019-03-26T15:11:07.485Z,8.40
2019-03-26T15:13:25.244Z,8.40
2019-03-26T15:15:53.431Z,8.50
2019-03-26T15:18:21.886Z,8.50
2019-03-26T15:20:50.123Z,8.50
2019-03-26T15:23:18.246Z,8.50
2019-03-26T15:25:46.570Z,8.50
2019-03-26T15:28:14.846Z,8.30
2019-03-26T15:30:43.447Z,8.30
2019-03-26T15:33:11.798Z,8.20
2019-03-26T15:35:40.174Z,8.10
2019-03-26T15:38:09.881Z,8.00
2019-03-26T15:40:38.136Z,8.10
2019-03-26T15:43:06.328Z,8.10
2019-03-26T15:45:34.538Z,8.00
2019-03-26T15:48:02.642Z,7.90
2019-03-26T15:50:41.328Z,7.90
2019-03-26T15:53:11.108Z,7.90
2019-03-26T15:55:41.205Z,7.80
2019-03-26T15:58:12.796Z,7.70
2019-03-26T16:00:40.968Z,7.70
2019-03-26T16:03:09.174Z,7.60
2019-03-26T16:05:38.723Z,7.50
2019-03-26T16:08:08.658Z,7.50
2019-03-26T16:10:36.898Z,7.40
2019-03-26T16:13:05.263Z,7.40
2019-03-26T16:15:43.617Z,7.40
2019-03-26T16:18:03.352Z,7.40
2019-03-26T16:20:35.036Z,7.40
2019-03-26T16:23:03.115Z,7.40
2019-03-26T16:25:31.364Z,7.40
2019-03-26T16:27:59.422Z,7.40
2019-03-26T16:30:30.632Z,7.40
2019-03-26T16:32:57.956Z,7.40
2019-03-26T16:35:26.062Z,7.40
2019-03-26T16:37:53.997Z,7.30
2019-03-26T16:40:22.170Z,7.30
2019-03-26T16:42:50.263Z,7.30
2019-03-26T16:45:20.024Z,7.20
2019-03-26T16:47:53.854Z,7.20
2019-03-26T16:50:21.992Z,7.20
2019-03-26T16:52:51.642Z,7.10
2019-03-26T16:55:20.990Z,7.10
2019-03-26T16:57:50.856Z,7.00
2019-03-26T17:00:21.746Z,7.00
2019-03-26T17:02:49.968Z,7.00
2019-03-26T17:05:19.973Z,6.90
2019-03-26T17:07:48.213Z,6.80
2019-03-26T17:10:17.463Z,6.80
2019-03-26T17:12:45.628Z,6.80
2019-03-26T17:15:13.648Z,6.80
2019-03-26T17:17:41.752Z,6.80
2019-03-26T17:20:09.917Z,6.80
2019-03-26T17:22:40.140Z,6.80
2019-03-26T17:25:10.049Z,6.80
2019-03-26T17:27:39.857Z,6.80
2019-03-26T17:30:08.065Z,6.80
2019-03-26T17:32:36.300Z,6.80
2019-03-26T17:35:05.650Z,6.80
2019-03-26T17:37:36.631Z,6.80
2019-03-26T17:40:05.521Z,6.80
2019-03-26T17:42:33.446Z,6.80
2019-03-26T17:45:01.397Z,6.80
2019-03-26T17:47:29.824Z,6.80
2019-03-26T17:49:58.175Z,6.80
2019-03-26T17:52:26.608Z,6.80
2019-03-26T17:54:54.766Z,6.80
2019-03-26T17:57:23.003Z,6.80
2019-03-26T17:59:53.418Z,6.80
2019-03-26T18:02:24.401Z,6.80
2019-03-26T18:04:53.803Z,6.80
2019-03-26T18:07:21.975Z,6.80
2019-03-26T18:09:50.362Z,6.80
2019-03-26T18:12:30.342Z,6.70
2019-03-26T18:14:48.211Z,6.70
2019-03-26T18:17:16.420Z,6.60
2019-03-26T18:19:44.718Z,6.50
2019-03-26T18:22:13.001Z,6.40
2019-03-26T18:24:41.477Z,6.20
2019-03-26T18:27:09.383Z,6.10
2019-03-26T18:29:37.256Z,6.00
2019-03-26T18:32:07.046Z,5.80
2019-03-26T18:34:34.944Z,5.80
2019-03-26T18:37:03.080Z,5.70
2019-03-26T18:39:31.640Z,5.60
2019-03-26T18:42:00.887Z,5.60
2019-03-26T18:44:30.469Z,5.60
2019-03-26T18:46:59.732Z,5.50
2019-03-26T18:49:28.381Z,5.50
2019-03-26T18:51:59.007Z,5.50
2019-03-26T18:54:27.114Z,5.50
2019-03-26T18:56:56.574Z,5.50
2019-03-26T18:59:24.647Z,5.40
2019-03-26T19:01:52.694Z,5.40
2019-03-26T19:04:21.033Z,5.40
2019-03-26T19:06:49.127Z,5.40
2019-03-26T19:09:18.573Z,5.30
2019-03-26T19:11:46.709Z,5.30
2019-03-26T19:14:14.747Z,5.30
2019-03-26T19:16:42.646Z,5.30
2019-03-26T19:19:10.593Z,5.30
2019-03-26T19:21:38.631Z,5.20
2019-03-26T19:24:06.657Z,5.30
2019-03-26T19:26:35.014Z,5.30
2019-03-26T19:29:04.148Z,5.30
2019-03-26T19:31:33.759Z,5.30
2019-03-26T19:34:01.660Z,5.30
2019-03-26T19:36:29.723Z,5.40
2019-03-26T19:39:01.063Z,5.40
2019-03-26T19:41:28.954Z,5.40
2019-03-26T19:43:58.310Z,5.40
2019-03-26T19:46:26.153Z,5.40
2019-03-26T19:48:55.552Z,5.40
2019-03-26T19:51:25.643Z,5.40
2019-03-26T19:53:55.125Z,5.40
2019-03-26T19:56:23.049Z,5.40
2019-03-26T19:58:53.968Z,5.40
2019-03-26T20:01:22.451Z,5.40
2019-03-26T20:03:50.507Z,5.40
2019-03-26T20:06:18.364Z,5.40
2019-03-26T20:08:46.278Z,5.40
2019-03-26T20:11:15.527Z,5.40
2019-03-26T20:13:43.665Z,5.40
2019-03-26T20:16:12.095Z,5.30
2019-03-26T20:18:40.326Z,5.30
2019-03-26T20:21:09.946Z,5.30
2019-03-26T20:23:37.905Z,5.20
2019-03-26T20:26:06.373Z,5.20
2019-03-26T20:28:34.775Z,5.20
2019-03-26T20:31:05.237Z,5.10
2019-03-26T20:33:35.111Z,5.10
2019-03-26T20:36:03.201Z,5.00
2019-03-26T20:38:31.146Z,4.90
2019-03-26T20:41:00.663Z,4.90
2019-03-26T20:43:37.273Z,4.80
2019-03-26T20:45:58.203Z,4.80
2019-03-26T20:48:26.306Z,4.70
2019-03-26T20:50:56.980Z,4.70
2019-03-26T20:53:23.827Z,4.60
2019-03-26T20:55:54.598Z,4.50
2019-03-26T20:58:21.509Z,4.50
2019-03-26T21:00:49.567Z,4.50
2019-03-26T21:03:17.513Z,4.50
2019-03-26T21:05:45.403Z,4.40
2019-03-26T21:08:13.328Z,4.30
2019-03-26T21:10:41.285Z,4.30
2019-03-26T21:13:10.484Z,4.20
2019-03-26T21:15:38.402Z,4.20
2019-03-26T21:18:06.333Z,4.20
2019-03-26T21:20:40.282Z,4.10
2019-03-26T21:23:08.307Z,4.10
2019-03-26T21:25:36.355Z,4.00
2019-03-26T21:28:05.563Z,4.00
2019-03-26T21:30:33.917Z,3.90
2019-03-26T21:33:03.251Z,3.90
2019-03-26T21:35:34.348Z,3.90
2019-03-26T21:38:02.400Z,3.80
2019-03-26T21:40:30.894Z,3.80
2019-03-26T21:42:59.287Z,3.80
2019-03-26T21:45:34.093Z,3.70
2019-03-26T21:48:02.663Z,3.70
2019-03-26T21:50:30.533Z,3.70
2019-03-26T21:52:58.404Z,3.70
2019-03-26T21:55:28.368Z,3.60
2019-03-26T21:57:58.381Z,3.60
2019-03-26T22:00:26.332Z,3.60
2019-03-26T22:02:54.383Z,3.60
2019-03-26T22:05:22.383Z,3.60
2019-03-26T22:07:50.375Z,3.50
2019-03-26T22:10:19.996Z,3.50
2019-03-26T22:12:51.324Z,3.50
2019-03-26T22:15:19.168Z,3.50
2019-03-26T22:17:47.083Z,3.40
2019-03-26T22:20:14.901Z,3.40
2019-03-26T22:22:42.976Z,3.40
2019-03-26T22:25:10.831Z,3.40
2019-03-26T22:27:38.924Z,3.40
2019-03-26T22:30:08.049Z,3.30
2019-03-26T22:32:36.307Z,3.30
2019-03-26T22:35:05.883Z,3.30
2019-03-26T22:37:34.889Z,3.30
2019-03-26T22:40:02.848Z,3.20
2019-03-26T22:42:30.890Z,3.20
2019-03-26T22:44:58.937Z,3.20
2019-03-26T22:47:26.828Z,3.20
2019-03-26T22:49:57.222Z,3.10
2019-03-26T22:52:27.132Z,3.10
2019-03-26T22:54:55.499Z,3.10
2019-03-26T22:57:23.638Z,3.00
2019-03-26T22:59:51.921Z,3.00
2019-03-26T23:02:20.007Z,3.00
2019-03-26T23:04:48.048Z,2.90
2019-03-26T23:07:17.673Z,2.90
2019-03-26T23:09:45.512Z,2.80
2019-03-26T23:12:15.468Z,2.80
2019-03-26T23:14:45.307Z,2.80
2019-03-26T23:17:12.945Z,2.70
2019-03-26T23:19:42.658Z,2.70
2019-03-26T23:22:12.612Z,2.60
2019-03-26T23:24:40.219Z,2.60
2019-03-26T23:27:08.847Z,2.50
2019-03-26T23:29:36.700Z,2.50
2019-03-26T23:32:04.618Z,2.40
2019-03-26T23:34:32.543Z,2.30
2019-03-26T23:37:00.475Z,2.30
2019-03-26T23:39:28.324Z,2.30
2019-03-26T23:41:56.515Z,2.20
2019-03-26T23:44:26.150Z,2.20
2019-03-26T23:46:54.268Z,2.10
2019-03-26T23:49:22.186Z,2.10
2019-03-26T23:51:50.377Z,2.10
2019-03-26T23:54:19.333Z,2.10
2019-03-26T23:56:49.491Z,2.00
2019-03-26T23:59:19.911Z,2.00
